createdAt,value
2023-05-01T00:02:12.765Z,13.48
2023-05-01T00:04:40.446Z,15.00
2023-05-01T00:07:07.010Z,21.35
2023-05-01T00:09:33.670Z,15.48
2023-05-01T00:12:00.224Z,18.38
2023-05-01T00:14:26.709Z,20.30
2023-05-01T00:16:53.273Z,15.35
2023-05-01T00:19:19.966Z,17.48
2023-05-01T00:21:47.937Z,20.42
2023-05-01T00:24:15.576Z,21.80
2023-05-01T00:26:42.149Z,18.40
2023-05-01T00:29:08.812Z,27.67
2023-05-01T00:31:35.928Z,26.02
2023-05-01T00:34:02.476Z,20.33
2023-05-01T00:36:29.051Z,25.70
2023-05-01T00:38:55.514Z,22.67
2023-05-01T00:41:22.122Z,17.25
2023-05-01T00:43:48.978Z,21.77
2023-05-01T00:46:15.550Z,18.00
2023-05-01T00:48:42.242Z,20.08
2023-05-01T00:51:08.969Z,24.38
2023-05-01T00:53:35.541Z,22.13
2023-05-01T00:56:02.069Z,21.98
2023-05-01T00:58:29.352Z,23.17
2023-05-01T01:00:56.890Z,24.70
2023-05-01T01:03:23.435Z,23.88
2023-05-01T01:06:09.419Z,28.70
2023-05-01T01:08:42.078Z,23.73
2023-05-01T01:11:21.682Z,29.08
2023-05-01T01:14:06.304Z,21.63
2023-05-01T01:16:45.992Z,36.22
2023-05-01T01:19:38.906Z,35.58
2023-05-01T01:22:09.193Z,42.90
2023-05-01T01:24:38.697Z,31.15
2023-05-01T01:27:14.111Z,33.08
2023-05-01T01:29:48.067Z,22.27
2023-05-01T01:32:32.499Z,26.17
2023-05-01T01:35:03.193Z,24.98
2023-05-01T01:37:37.100Z,29.25
2023-05-01T01:40:07.058Z,25.27
2023-05-01T01:42:38.664Z,27.75
2023-05-01T01:45:10.713Z,30.05
2023-05-01T01:47:39.057Z,24.55
2023-05-01T01:50:06.781Z,30.40
2023-05-01T01:52:33.614Z,27.08
2023-05-01T01:55:05.234Z,24.50
2023-05-01T01:57:32.384Z,29.73
2023-05-01T01:59:59.112Z,34.40
2023-05-01T02:02:27.268Z,20.88
2023-05-01T02:04:57.118Z,29.15
2023-05-01T02:07:24.308Z,24.48
2023-05-01T02:09:51.795Z,27.25
2023-05-01T02:12:19.272Z,30.48
2023-05-01T02:14:46.151Z,24.33
2023-05-01T02:17:14.744Z,25.25
2023-05-01T02:19:41.880Z,28.27
2023-05-01T02:22:08.697Z,26.42
2023-05-01T02:24:35.956Z,33.20
2023-05-01T02:27:09.592Z,43.45
2023-05-01T02:29:36.083Z,37.40
2023-05-01T02:32:02.966Z,38.28
2023-05-01T02:34:29.853Z,41.15
2023-05-01T02:36:56.692Z,43.65
2023-05-01T02:39:23.178Z,41.15
2023-05-01T02:41:51.400Z,35.45
2023-05-01T02:44:18.476Z,35.45
2023-05-01T02:46:47.183Z,37.05
2023-05-01T02:49:13.911Z,31.13
2023-05-01T02:51:41.073Z,27.50
2023-05-01T02:54:08.024Z,32.53
2023-05-01T02:56:35.152Z,25.40
2023-05-01T02:59:02.022Z,25.73
2023-05-01T03:01:28.642Z,30.73
2023-05-01T03:03:55.400Z,23.88
2023-05-01T03:06:21.909Z,23.90
2023-05-01T03:08:48.864Z,27.20
2023-05-01T03:11:15.749Z,27.98
2023-05-01T03:13:42.231Z,25.25
2023-05-01T03:16:08.964Z,25.83
2023-05-01T03:18:35.645Z,30.83
2023-05-01T03:21:02.177Z,26.38
2023-05-01T03:23:28.875Z,21.15
2023-05-01T03:25:55.392Z,30.23
2023-05-01T03:28:23.618Z,23.30
2023-05-01T03:30:52.806Z,24.10
2023-05-01T03:33:19.723Z,25.17
2023-05-01T03:35:46.756Z,23.20
2023-05-01T03:38:13.629Z,24.05
2023-05-01T03:40:59.143Z,23.20
2023-05-01T03:43:44.041Z,26.77
2023-05-01T03:46:27.549Z,21.60
2023-05-01T03:48:54.438Z,25.88
2023-05-01T03:51:21.276Z,21.77
2023-05-01T03:53:48.337Z,22.42
2023-05-01T03:56:14.956Z,27.05
2023-05-01T03:58:41.500Z,21.88
2023-05-01T04:01:08.636Z,19.05
2023-05-01T04:03:40.598Z,26.40
2023-05-01T04:06:07.578Z,23.77
2023-05-01T04:08:34.098Z,21.70
2023-05-01T04:11:01.128Z,23.38
2023-05-01T04:13:27.764Z,18.35
2023-05-01T04:15:56.185Z,17.58
2023-05-01T04:18:23.307Z,21.33
2023-05-01T04:20:49.855Z,16.38
2023-05-01T04:23:16.355Z,13.25
2023-05-01T04:25:43.302Z,22.00
2023-05-01T04:28:13.651Z,15.70
2023-05-01T04:30:40.351Z,13.13
2023-05-01T04:33:11.567Z,19.60
2023-05-01T04:35:39.608Z,12.15
2023-05-01T04:38:06.591Z,12.88
2023-05-01T04:40:34.002Z,15.13
2023-05-01T04:43:00.725Z,15.60
2023-05-01T04:45:27.365Z,12.95
2023-05-01T04:47:54.826Z,17.98
2023-05-01T04:50:21.468Z,14.45
2023-05-01T04:52:48.040Z,11.88
2023-05-01T04:55:14.537Z,16.98
2023-05-01T04:57:57.941Z,11.80
2023-05-01T05:00:24.706Z,14.38
2023-05-01T05:02:55.440Z,13.02
2023-05-01T05:05:22.353Z,12.40
2023-05-01T05:07:49.661Z,13.93
2023-05-01T05:10:36.843Z,8.07
2023-05-01T05:13:35.586Z,9.20
2023-05-01T05:16:07.237Z,12.48
2023-05-01T05:18:33.844Z,10.93
2023-05-01T05:21:03.131Z,11.68
2023-05-01T05:23:29.764Z,11.98
2023-05-01T05:25:56.214Z,10.95
2023-05-01T05:28:23.897Z,7.65
2023-05-01T05:30:51.145Z,15.68
2023-05-01T05:33:19.459Z,12.77
2023-05-01T05:35:46.108Z,10.75
2023-05-01T05:38:12.686Z,14.40
2023-05-01T05:40:41.002Z,10.02
2023-05-01T05:43:07.640Z,11.77
2023-05-01T05:45:34.652Z,12.45
2023-05-01T05:48:01.583Z,11.38
2023-05-01T05:50:30.804Z,6.45
2023-05-01T05:52:57.990Z,13.13
2023-05-01T05:55:24.658Z,8.60
2023-05-01T05:58:04.679Z,7.90
2023-05-01T06:00:31.614Z,8.30
2023-05-01T06:03:02.606Z,8.40
2023-05-01T06:05:30.417Z,10.65
2023-05-01T06:07:56.936Z,7.70
2023-05-01T06:10:23.360Z,6.10
2023-05-01T06:12:58.129Z,7.57
2023-05-01T06:15:32.242Z,7.68
2023-05-01T06:17:58.840Z,7.70
2023-05-01T06:20:25.488Z,9.65
2023-05-01T06:22:52.439Z,6.55
2023-05-01T06:25:26.916Z,7.43
2023-05-01T06:27:53.606Z,5.78
2023-05-01T06:30:22.042Z,8.10
2023-05-01T06:32:48.953Z,8.15
2023-05-01T06:35:16.365Z,6.10
2023-05-01T06:37:42.891Z,6.05
2023-05-01T06:40:11.161Z,10.07
2023-05-01T06:42:38.848Z,9.02
2023-05-01T06:45:06.438Z,6.75
2023-05-01T06:47:32.989Z,10.15
2023-05-01T06:50:02.826Z,7.30
2023-05-01T06:52:33.114Z,8.60
2023-05-01T06:54:59.644Z,10.65
2023-05-01T06:57:26.284Z,7.55
2023-05-01T06:59:52.887Z,5.18
2023-05-01T07:02:19.553Z,11.05
2023-05-01T07:04:46.177Z,6.70
2023-05-01T07:07:12.727Z,6.68
2023-05-01T07:09:40.433Z,9.48
2023-05-01T07:12:07.002Z,12.35
2023-05-01T07:14:34.877Z,6.57
2023-05-01T07:17:02.060Z,10.07
2023-05-01T07:19:28.919Z,7.85
2023-05-01T07:21:55.496Z,19.80
2023-05-01T07:24:22.001Z,9.65
2023-05-01T07:26:48.487Z,7.05
2023-05-01T07:29:16.459Z,5.30
2023-05-01T07:31:43.422Z,9.07
2023-05-01T07:34:10.271Z,7.70
2023-05-01T07:36:36.834Z,6.22
2023-05-01T07:39:04.281Z,12.15
2023-05-01T07:41:31.084Z,5.38
2023-05-01T07:44:00.926Z,8.38
2023-05-01T07:46:27.705Z,9.77
2023-05-01T07:48:54.569Z,7.10
2023-05-01T07:51:21.256Z,5.57
2023-05-01T07:53:48.014Z,6.97
2023-05-01T07:56:15.069Z,5.68
2023-05-01T07:58:42.635Z,5.75
2023-05-01T08:01:09.375Z,7.13
2023-05-01T08:03:36.025Z,7.97
2023-05-01T08:06:02.833Z,8.70
2023-05-01T08:08:29.541Z,6.65
2023-05-01T08:10:56.373Z,4.95
2023-05-01T08:13:23.231Z,5.38
2023-05-01T08:15:49.956Z,6.88
2023-05-01T08:18:20.640Z,5.60
2023-05-01T08:20:50.735Z,5.35
2023-05-01T08:23:17.534Z,7.88
2023-05-01T08:25:46.898Z,7.63
2023-05-01T08:28:14.843Z,6.10
2023-05-01T08:30:41.369Z,8.57
2023-05-01T08:33:07.964Z,8.50
2023-05-01T08:35:34.514Z,5.18
2023-05-01T08:38:01.729Z,10.07
2023-05-01T08:40:31.386Z,5.82
2023-05-01T08:42:59.503Z,4.93
2023-05-01T08:45:27.814Z,10.23
2023-05-01T08:47:55.170Z,6.70
2023-05-01T08:50:22.805Z,4.43
2023-05-01T08:52:51.249Z,7.55
2023-05-01T08:55:19.716Z,6.07
2023-05-01T08:57:48.235Z,4.43
2023-05-01T09:00:18.726Z,11.13
2023-05-01T09:02:46.911Z,6.07
2023-05-01T09:05:14.890Z,4.90
2023-05-01T09:07:42.414Z,8.40
2023-05-01T09:10:09.642Z,7.18
2023-05-01T09:12:36.343Z,7.07
2023-05-01T09:15:03.678Z,7.40
2023-05-01T09:17:32.285Z,7.30
2023-05-01T09:19:59.369Z,4.32
2023-05-01T09:22:26.133Z,8.65
2023-05-01T09:24:52.901Z,6.15
2023-05-01T09:27:19.356Z,6.18
2023-05-01T09:29:47.396Z,7.50
2023-05-01T09:32:14.055Z,8.60
2023-05-01T09:34:40.787Z,6.05
2023-05-01T09:37:07.298Z,8.52
2023-05-01T09:39:33.846Z,7.32
2023-05-01T09:42:00.360Z,8.82
2023-05-01T09:44:27.795Z,10.07
2023-05-01T09:46:54.462Z,6.53
2023-05-01T09:49:41.790Z,5.07
2023-05-01T09:52:11.886Z,6.40
2023-05-01T09:54:38.366Z,6.35
2023-05-01T09:57:05.115Z,10.23
2023-05-01T09:59:34.318Z,6.82
2023-05-01T10:02:01.639Z,4.20
2023-05-01T10:04:35.338Z,7.10
2023-05-01T10:07:14.504Z,5.90
2023-05-01T10:09:42.286Z,11.43
2023-05-01T10:12:08.780Z,7.80
2023-05-01T10:14:49.020Z,6.85
2023-05-01T10:17:21.531Z,5.50
2023-05-01T10:19:48.943Z,5.53
2023-05-01T10:22:15.587Z,8.52
2023-05-01T10:24:43.256Z,7.45
2023-05-01T10:27:10.492Z,8.10
2023-05-01T10:29:37.832Z,10.05
2023-05-01T10:32:04.961Z,17.25
2023-05-01T10:34:33.387Z,5.78
2023-05-01T10:37:04.763Z,8.38
2023-05-01T10:39:35.307Z,8.05
2023-05-01T10:42:03.814Z,17.50
2023-05-01T10:44:30.874Z,7.40
2023-05-01T10:46:57.625Z,5.28
2023-05-01T10:49:24.391Z,8.48
2023-05-01T10:51:57.919Z,5.28
2023-05-01T10:54:31.563Z,5.13
2023-05-01T10:56:59.428Z,12.82
2023-05-01T10:59:26.118Z,6.50
2023-05-01T11:01:53.149Z,4.82
2023-05-01T11:04:19.688Z,6.45
2023-05-01T11:07:15.455Z,8.45
2023-05-01T11:09:42.134Z,7.88
2023-05-01T11:12:12.558Z,8.25
2023-05-01T11:14:54.878Z,11.13
2023-05-01T11:17:40.059Z,5.35
2023-05-01T11:20:10.736Z,35.88
2023-05-01T11:22:38.142Z,7.10
2023-05-01T11:25:16.082Z,6.90
2023-05-01T11:27:46.490Z,7.20
2023-05-01T11:30:13.272Z,8.18
2023-05-01T11:32:43.107Z,9.60
2023-05-01T11:35:16.662Z,7.28
2023-05-01T11:37:44.298Z,6.55
2023-05-01T11:40:31.535Z,7.55
2023-05-01T11:43:07.831Z,8.23
2023-05-01T11:45:35.227Z,13.30
2023-05-01T11:48:04.610Z,6.13
2023-05-01T11:50:38.485Z,9.38
2023-05-01T11:53:11.747Z,6.15
2023-05-01T11:55:41.193Z,12.15
2023-05-01T11:58:07.958Z,8.80
2023-05-01T12:00:36.988Z,7.20
2023-05-01T12:03:06.926Z,9.93
2023-05-01T12:05:37.419Z,6.47
2023-05-01T12:08:14.959Z,5.72
2023-05-01T12:10:43.070Z,7.25
2023-05-01T12:13:10.239Z,7.78
2023-05-01T12:15:37.933Z,7.10
2023-05-01T12:18:07.655Z,8.20
2023-05-01T12:20:38.388Z,5.03
2023-05-01T12:23:05.828Z,9.32
2023-05-01T12:25:34.070Z,6.25
2023-05-01T12:28:02.193Z,8.10
2023-05-01T12:30:29.706Z,9.25
2023-05-01T12:32:57.331Z,8.38
2023-05-01T12:35:28.836Z,4.95
2023-05-01T12:37:56.004Z,10.68
2023-05-01T12:40:22.967Z,5.68
2023-05-01T12:42:57.287Z,5.43
2023-05-01T12:45:24.140Z,7.75
2023-05-01T12:47:50.845Z,13.13
2023-05-01T12:50:17.524Z,5.03
2023-05-01T12:52:44.122Z,7.05
2023-05-01T12:55:12.605Z,7.90
2023-05-01T12:57:52.195Z,5.75
2023-05-01T13:00:19.170Z,6.90
2023-05-01T13:02:45.634Z,6.25
2023-05-01T13:05:12.221Z,9.48
2023-05-01T13:07:40.451Z,9.25
2023-05-01T13:10:07.159Z,7.63
2023-05-01T13:12:34.170Z,14.10
2023-05-01T13:15:00.830Z,8.63
2023-05-01T13:17:28.604Z,5.50
2023-05-01T13:19:59.785Z,11.88
2023-05-01T13:22:32.933Z,6.65
2023-05-01T13:24:59.924Z,9.57
2023-05-01T13:27:26.780Z,13.57
2023-05-01T13:29:55.747Z,10.98
2023-05-01T13:32:23.090Z,7.53
2023-05-01T13:34:49.744Z,7.60
2023-05-01T13:37:16.647Z,8.85
2023-05-01T13:39:43.981Z,19.92
2023-05-01T13:42:15.983Z,11.95
2023-05-01T13:44:44.004Z,5.68
2023-05-01T13:47:14.943Z,8.02
2023-05-01T13:49:41.993Z,8.50
2023-05-01T13:52:12.357Z,7.13
2023-05-01T13:54:42.266Z,9.57
2023-05-01T13:57:09.563Z,9.45
2023-05-01T13:59:40.007Z,5.30
2023-05-01T14:02:15.592Z,11.70
2023-05-01T14:04:42.286Z,6.63
2023-05-01T14:07:11.090Z,11.00
2023-05-01T14:09:39.730Z,8.15
2023-05-01T14:12:06.305Z,9.10
2023-05-01T14:14:35.880Z,9.23
2023-05-01T14:17:02.555Z,8.27
2023-05-01T14:19:29.108Z,6.20
2023-05-01T14:21:56.116Z,11.93
2023-05-01T14:24:22.652Z,6.45
2023-05-01T14:26:50.015Z,6.57
2023-05-01T14:29:25.813Z,10.45
2023-05-01T14:31:52.737Z,6.00
2023-05-01T14:34:19.723Z,6.65
2023-05-01T14:36:46.223Z,9.40
2023-05-01T14:39:13.309Z,7.38
2023-05-01T14:41:42.360Z,9.77
2023-05-01T14:44:13.995Z,10.10
2023-05-01T14:46:43.472Z,10.43
2023-05-01T14:49:11.698Z,8.20
2023-05-01T14:51:41.014Z,9.15
2023-05-01T14:54:09.798Z,10.15
2023-05-01T14:56:36.274Z,7.78
2023-05-01T14:59:02.862Z,6.63
2023-05-01T15:01:29.369Z,7.47
2023-05-01T15:03:56.371Z,6.80
2023-05-01T15:06:24.441Z,58.08
2023-05-01T15:08:51.264Z,5.30
2023-05-01T15:11:21.671Z,21.60
2023-05-01T15:13:50.439Z,49.38
2023-05-01T15:16:17.242Z,7.43
2023-05-01T15:18:43.867Z,9.95
2023-05-01T15:21:10.363Z,9.85
2023-05-01T15:23:37.232Z,7.10
2023-05-01T15:26:03.934Z,9.27
2023-05-01T15:28:30.561Z,9.05
2023-05-01T15:30:57.186Z,6.57
2023-05-01T15:33:24.070Z,15.20
2023-05-01T15:35:52.741Z,7.10
2023-05-01T15:38:21.009Z,5.05
2023-05-01T15:40:47.573Z,12.25
2023-05-01T15:43:14.124Z,43.60
2023-05-01T15:45:43.649Z,42.25
2023-05-01T15:48:11.402Z,26.30
2023-05-01T15:50:37.976Z,10.48
2023-05-01T15:53:04.707Z,51.85
2023-05-01T15:55:31.252Z,23.42
2023-05-01T15:57:57.872Z,7.88
2023-05-01T16:00:25.205Z,6.03
2023-05-01T16:02:51.810Z,13.77
2023-05-01T16:05:19.270Z,13.43
2023-05-01T16:07:46.238Z,8.13
2023-05-01T16:10:12.756Z,11.25
2023-05-01T16:12:39.199Z,17.73
2023-05-01T16:15:05.920Z,9.13
2023-05-01T16:17:33.691Z,9.32
2023-05-01T16:20:01.758Z,7.47
2023-05-01T16:22:28.723Z,6.90
2023-05-01T16:24:55.234Z,8.77
2023-05-01T16:27:21.698Z,10.20
2023-05-01T16:29:48.357Z,6.38
2023-05-01T16:32:16.784Z,5.57
2023-05-01T16:34:44.009Z,16.40
2023-05-01T16:37:12.968Z,24.88
2023-05-01T16:39:39.517Z,9.88
2023-05-01T16:42:06.309Z,9.32
2023-05-01T16:44:35.466Z,14.27
2023-05-01T16:47:03.519Z,10.73
2023-05-01T16:49:30.091Z,9.75
2023-05-01T16:51:57.423Z,7.80
2023-05-01T16:54:32.237Z,8.00
2023-05-01T16:56:59.288Z,10.23
2023-05-01T16:59:25.973Z,12.13
2023-05-01T17:01:52.693Z,12.80
2023-05-01T17:04:19.491Z,7.07
2023-05-01T17:06:46.205Z,5.57
2023-05-01T17:09:12.974Z,16.15
2023-05-01T17:11:55.531Z,6.20
2023-05-01T17:14:22.395Z,7.93
2023-05-01T17:16:50.403Z,6.18
2023-05-01T17:19:17.313Z,9.43
2023-05-01T17:21:43.838Z,8.52
2023-05-01T17:24:11.003Z,7.82
2023-05-01T17:26:37.609Z,6.72
2023-05-01T17:29:04.249Z,7.82
2023-05-01T17:31:30.911Z,9.38
2023-05-01T17:33:57.397Z,7.95
2023-05-01T17:36:24.041Z,10.10
2023-05-01T17:38:50.863Z,14.90
2023-05-01T17:41:17.316Z,6.95
2023-05-01T17:43:44.843Z,3.92
2023-05-01T17:46:11.715Z,5.43
2023-05-01T17:48:38.208Z,11.95
2023-05-01T17:51:04.738Z,5.75
2023-05-01T17:53:31.295Z,6.25
2023-05-01T17:55:58.345Z,5.65
2023-05-01T17:58:24.891Z,6.13
2023-05-01T18:00:51.792Z,8.20
2023-05-01T18:03:18.516Z,8.85
2023-05-01T18:05:45.110Z,9.45
2023-05-01T18:08:11.710Z,5.68
2023-05-01T18:10:38.355Z,7.28
2023-05-01T18:13:06.251Z,4.88
2023-05-01T18:15:32.789Z,9.63
2023-05-01T18:17:59.415Z,5.93
2023-05-01T18:20:25.934Z,4.00
2023-05-01T18:22:54.276Z,8.20
2023-05-01T18:25:20.821Z,5.97
2023-05-01T18:27:47.443Z,5.03
2023-05-01T18:30:14.206Z,9.18
2023-05-01T18:32:48.318Z,8.15
2023-05-01T18:35:16.169Z,4.63
2023-05-01T18:37:44.047Z,5.97
2023-05-01T18:40:11.003Z,7.10
2023-05-01T18:42:37.954Z,8.20
2023-05-01T18:45:04.806Z,7.30
2023-05-01T18:47:32.602Z,8.85
2023-05-01T18:49:59.612Z,7.75
2023-05-01T18:52:26.457Z,8.93
2023-05-01T18:54:52.987Z,6.97
2023-05-01T18:57:19.554Z,9.25
2023-05-01T18:59:46.039Z,6.28
2023-05-01T19:02:12.650Z,10.20
2023-05-01T19:04:55.972Z,9.25
2023-05-01T19:07:23.759Z,10.25
2023-05-01T19:09:50.413Z,8.43
2023-05-01T19:12:16.856Z,10.85
2023-05-01T19:14:43.379Z,8.55
2023-05-01T19:17:10.208Z,9.48
2023-05-01T19:19:36.736Z,8.02
2023-05-01T19:22:03.300Z,8.80
2023-05-01T19:24:29.930Z,9.65
2023-05-01T19:26:56.868Z,10.27
2023-05-01T19:29:24.071Z,9.27
2023-05-01T19:31:50.677Z,8.75
2023-05-01T19:34:17.218Z,8.98
2023-05-01T19:36:43.727Z,9.40
2023-05-01T19:39:10.447Z,9.30
2023-05-01T19:41:37.333Z,11.75
2023-05-01T19:44:04.201Z,8.73
2023-05-01T19:46:30.848Z,10.65
2023-05-01T19:48:57.471Z,9.85
2023-05-01T19:51:24.149Z,12.52
2023-05-01T19:53:50.790Z,10.23
2023-05-01T19:56:17.350Z,10.05
2023-05-01T19:58:43.963Z,13.70
2023-05-01T20:01:11.969Z,9.88
2023-05-01T20:03:38.865Z,9.90
2023-05-01T20:06:06.402Z,10.13
2023-05-01T20:08:33.650Z,10.65
2023-05-01T20:11:01.304Z,9.30
2023-05-01T20:13:27.877Z,10.30
2023-05-01T20:15:54.418Z,9.32
2023-05-01T20:18:21.086Z,11.65
2023-05-01T20:20:47.626Z,9.57
2023-05-01T20:23:17.851Z,10.23
2023-05-01T20:25:46.408Z,9.52
2023-05-01T20:28:14.964Z,9.73
2023-05-01T20:30:43.578Z,8.40
2023-05-01T20:33:10.650Z,9.38
2023-05-01T20:35:37.364Z,10.68
2023-05-01T20:38:04.573Z,10.25
2023-05-01T20:40:31.987Z,9.27
2023-05-01T20:42:59.524Z,9.35
2023-05-01T20:45:26.480Z,9.80
2023-05-01T20:47:53.674Z,10.48
2023-05-01T20:50:20.459Z,9.63
2023-05-01T20:52:47.298Z,8.05
2023-05-01T20:55:13.870Z,9.32
2023-05-01T20:57:40.492Z,10.57
2023-05-01T21:00:08.034Z,8.18
2023-05-01T21:02:37.375Z,8.52
2023-05-01T21:05:04.766Z,7.38
2023-05-01T21:07:31.610Z,7.85
2023-05-01T21:09:58.283Z,8.73
2023-05-01T21:12:25.003Z,9.73
2023-05-01T21:14:51.529Z,7.75
2023-05-01T21:17:18.170Z,8.57
2023-05-01T21:19:45.736Z,6.95
2023-05-01T21:22:22.191Z,7.78
2023-05-01T21:24:53.337Z,7.00
2023-05-01T21:27:20.261Z,10.20
2023-05-01T21:30:00.474Z,7.68
2023-05-01T21:32:32.558Z,7.68
2023-05-01T21:34:59.638Z,8.02
2023-05-01T21:37:26.089Z,8.23
2023-05-01T21:39:52.818Z,8.43
2023-05-01T21:42:19.310Z,9.35
2023-05-01T21:44:45.958Z,12.50
2023-05-01T21:47:12.922Z,12.10
2023-05-01T21:49:39.892Z,10.73
2023-05-01T21:52:08.701Z,12.73
2023-05-01T21:54:38.502Z,12.52
2023-05-01T21:57:07.666Z,8.27
2023-05-01T21:59:36.184Z,12.27
2023-05-01T22:02:09.873Z,9.45
2023-05-01T22:04:37.280Z,13.50
2023-05-01T22:07:04.356Z,9.88
2023-05-01T22:09:31.054Z,10.77
2023-05-01T22:12:00.530Z,9.48
2023-05-01T22:14:36.726Z,8.35
2023-05-01T22:17:13.171Z,23.38
2023-05-01T22:19:40.122Z,10.48
2023-05-01T22:22:06.617Z,10.48
2023-05-01T22:24:35.106Z,9.98
2023-05-01T22:27:02.653Z,10.60
2023-05-01T22:29:29.124Z,8.98
2023-05-01T22:31:56.857Z,9.38
2023-05-01T22:34:23.668Z,10.20
2023-05-01T22:36:50.180Z,9.25
2023-05-01T22:39:16.990Z,10.75
2023-05-01T22:41:43.671Z,10.60
2023-05-01T22:44:10.198Z,11.05
2023-05-01T22:46:36.918Z,11.27
2023-05-01T22:49:04.189Z,11.40
2023-05-01T22:51:30.837Z,10.85
2023-05-01T22:53:57.384Z,8.93
2023-05-01T22:56:26.298Z,11.38
2023-05-01T22:58:52.876Z,9.30
2023-05-01T23:01:19.374Z,7.95
2023-05-01T23:03:45.995Z,12.48
2023-05-01T23:06:13.069Z,9.82
2023-05-01T23:08:39.664Z,6.85
2023-05-01T23:11:06.212Z,12.18
2023-05-01T23:13:32.757Z,8.65
2023-05-01T23:15:59.761Z,9.63
2023-05-01T23:18:36.492Z,13.77
2023-05-01T23:21:03.415Z,8.55
2023-05-01T23:23:30.739Z,8.52
2023-05-01T23:25:57.744Z,10.43
2023-05-01T23:28:25.011Z,8.40
2023-05-01T23:30:54.540Z,9.05
2023-05-01T23:33:21.705Z,8.15
2023-05-01T23:35:48.339Z,7.63
2023-05-01T23:38:14.953Z,10.63
2023-05-01T23:40:41.534Z,9.00
2023-05-01T23:43:08.357Z,8.07
2023-05-01T23:45:35.042Z,9.63
2023-05-01T23:48:02.986Z,9.85
2023-05-01T23:50:29.776Z,8.27
2023-05-01T23:52:56.485Z,11.15
2023-05-01T23:55:23.161Z,7.10
2023-05-01T23:57:49.680Z,8.77
